sensor_id;sensor_type;location;lat;lon;timestamp;P1;durP1;ratioP1;P2;durP2;ratioP2
15216;SDS011;7711;46.634;14.318;2023-10-08T00:02:22;10.52;;;8.32;;
15216;SDS011;7711;46.634;14.318;2023-10-08T00:04:51;14.10;;;9.52;;
15216;SDS011;7711;46.634;14.318;2023-10-08T00:07:19;11.07;;;8.45;;
15216;SDS011;7711;46.634;14.318;2023-10-08T00:09:48;14.00;;;8.70;;
15216;SDS011;7711;46.634;14.318;2023-10-08T00:12:16;12.43;;;7.95;;
15216;SDS011;7711;46.634;14.318;2023-10-08T00:14:45;15.77;;;9.23;;
15216;SDS011;7711;46.634;14.318;2023-10-08T00:17:15;11.35;;;8.82;;
15216;SDS011;7711;46.634;14.318;2023-10-08T00:19:42;11.45;;;8.70;;
15216;SDS011;7711;46.634;14.318;2023-10-08T00:22:09;13.77;;;8.95;;
15216;SDS011;7711;46.634;14.318;2023-10-08T00:24:38;10.50;;;8.30;;
15216;SDS011;7711;46.634;14.318;2023-10-08T00:27:07;10.50;;;8.43;;
15216;SDS011;7711;46.634;14.318;2023-10-08T00:29:35;11.85;;;8.30;;
15216;SDS011;7711;46.634;14.318;2023-10-08T00:32:06;11.03;;;8.47;;
15216;SDS011;7711;46.634;14.318;2023-10-08T00:34:40;10.40;;;8.40;;
15216;SDS011;7711;46.634;14.318;2023-10-08T00:37:08;10.30;;;8.30;;
15216;SDS011;7711;46.634;14.318;2023-10-08T00:39:39;12.23;;;8.85;;
15216;SDS011;7711;46.634;14.318;2023-10-08T00:42:07;12.05;;;8.55;;
15216;SDS011;7711;46.634;14.318;2023-10-08T00:44:35;11.40;;;8.80;;
15216;SDS011;7711;46.634;14.318;2023-10-08T00:47:14;11.03;;;8.73;;
15216;SDS011;7711;46.634;14.318;2023-10-08T00:49:43;12.47;;;8.70;;
15216;SDS011;7711;46.634;14.318;2023-10-08T00:52:31;14.97;;;8.80;;
15216;SDS011;7711;46.634;14.318;2023-10-08T00:55:05;10.87;;;8.43;;
15216;SDS011;7711;46.634;14.318;2023-10-08T00:57:46;10.33;;;7.93;;
15216;SDS011;7711;46.634;14.318;2023-10-08T01:00:18;13.00;;;8.43;;
15216;SDS011;7711;46.634;14.318;2023-10-08T01:02:49;13.10;;;8.47;;
15216;SDS011;7711;46.634;14.318;2023-10-08T01:05:25;12.07;;;8.03;;
15216;SDS011;7711;46.634;14.318;2023-10-08T01:08:07;9.97;;;7.60;;
15216;SDS011;7711;46.634;14.318;2023-10-08T01:10:37;12.65;;;8.45;;
15216;SDS011;7711;46.634;14.318;2023-10-08T01:13:05;11.35;;;8.18;;
15216;SDS011;7711;46.634;14.318;2023-10-08T01:15:36;13.10;;;8.63;;
15216;SDS011;7711;46.634;14.318;2023-10-08T01:18:08;13.07;;;7.35;;
15216;SDS011;7711;46.634;14.318;2023-10-08T01:20:40;9.60;;;7.45;;
15216;SDS011;7711;46.634;14.318;2023-10-08T01:23:18;10.38;;;7.75;;
15216;SDS011;7711;46.634;14.318;2023-10-08T01:25:47;12.63;;;8.18;;
15216;SDS011;7711;46.634;14.318;2023-10-08T01:28:16;10.85;;;8.10;;
15216;SDS011;7711;46.634;14.318;2023-10-08T01:30:50;11.37;;;7.93;;
15216;SDS011;7711;46.634;14.318;2023-10-08T01:33:19;11.37;;;7.97;;
15216;SDS011;7711;46.634;14.318;2023-10-08T01:35:53;11.23;;;7.82;;
15216;SDS011;7711;46.634;14.318;2023-10-08T01:38:28;13.30;;;8.02;;
15216;SDS011;7711;46.634;14.318;2023-10-08T01:40:56;12.43;;;7.93;;
15216;SDS011;7711;46.634;14.318;2023-10-08T01:43:28;11.47;;;7.70;;
15216;SDS011;7711;46.634;14.318;2023-10-08T01:45:55;12.83;;;7.97;;
15216;SDS011;7711;46.634;14.318;2023-10-08T01:48:22;14.07;;;8.60;;
15216;SDS011;7711;46.634;14.318;2023-10-08T01:50:53;9.27;;;7.43;;
15216;SDS011;7711;46.634;14.318;2023-10-08T01:53:21;11.75;;;8.20;;
15216;SDS011;7711;46.634;14.318;2023-10-08T01:55:49;11.67;;;7.70;;
15216;SDS011;7711;46.634;14.318;2023-10-08T01:58:19;10.53;;;7.67;;
15216;SDS011;7711;46.634;14.318;2023-10-08T02:00:47;11.70;;;8.27;;
15216;SDS011;7711;46.634;14.318;2023-10-08T02:03:17;12.47;;;8.43;;
15216;SDS011;7711;46.634;14.318;2023-10-08T02:05:44;13.60;;;8.60;;
15216;SDS011;7711;46.634;14.318;2023-10-08T02:08:13;13.27;;;8.33;;
15216;SDS011;7711;46.634;14.318;2023-10-08T02:10:42;10.37;;;8.13;;
15216;SDS011;7711;46.634;14.318;2023-10-08T02:13:13;9.70;;;7.55;;
15216;SDS011;7711;46.634;14.318;2023-10-08T02:15:43;9.77;;;7.40;;
15216;SDS011;7711;46.634;14.318;2023-10-08T02:18:12;11.67;;;7.70;;
15216;SDS011;7711;46.634;14.318;2023-10-08T02:20:39;9.57;;;7.83;;
15216;SDS011;7711;46.634;14.318;2023-10-08T02:23:06;12.00;;;8.20;;
15216;SDS011;7711;46.634;14.318;2023-10-08T02:25:33;11.80;;;7.67;;
15216;SDS011;7711;46.634;14.318;2023-10-08T02:28:01;11.23;;;8.27;;
15216;SDS011;7711;46.634;14.318;2023-10-08T02:30:30;12.00;;;8.47;;
15216;SDS011;7711;46.634;14.318;2023-10-08T02:32:57;13.53;;;8.13;;
15216;SDS011;7711;46.634;14.318;2023-10-08T02:35:24;13.80;;;8.40;;
15216;SDS011;7711;46.634;14.318;2023-10-08T02:37:52;11.20;;;7.70;;
15216;SDS011;7711;46.634;14.318;2023-10-08T02:40:20;9.73;;;7.33;;
15216;SDS011;7711;46.634;14.318;2023-10-08T02:42:52;11.52;;;7.90;;
15216;SDS011;7711;46.634;14.318;2023-10-08T02:45:23;10.98;;;7.88;;
15216;SDS011;7711;46.634;14.318;2023-10-08T02:47:52;9.70;;;7.45;;
15216;SDS011;7711;46.634;14.318;2023-10-08T02:50:19;10.68;;;7.50;;
15216;SDS011;7711;46.634;14.318;2023-10-08T02:52:47;11.13;;;8.07;;
15216;SDS011;7711;46.634;14.318;2023-10-08T02:55:15;11.00;;;7.65;;
15216;SDS011;7711;46.634;14.318;2023-10-08T02:57:53;11.70;;;6.93;;
15216;SDS011;7711;46.634;14.318;2023-10-08T03:00:21;11.55;;;7.35;;
15216;SDS011;7711;46.634;14.318;2023-10-08T03:02:56;9.97;;;7.10;;
15216;SDS011;7711;46.634;14.318;2023-10-08T03:05:23;12.25;;;6.85;;
15216;SDS011;7711;46.634;14.318;2023-10-08T03:07:55;11.38;;;7.40;;
15216;SDS011;7711;46.634;14.318;2023-10-08T03:10:23;11.87;;;7.33;;
15216;SDS011;7711;46.634;14.318;2023-10-08T03:12:57;12.53;;;7.47;;
15216;SDS011;7711;46.634;14.318;2023-10-08T03:15:29;12.63;;;7.93;;
15216;SDS011;7711;46.634;14.318;2023-10-08T03:18:05;11.73;;;7.37;;
15216;SDS011;7711;46.634;14.318;2023-10-08T03:20:39;12.03;;;7.37;;
15216;SDS011;7711;46.634;14.318;2023-10-08T03:23:09;14.30;;;7.93;;
15216;SDS011;7711;46.634;14.318;2023-10-08T03:25:51;12.07;;;7.37;;
15216;SDS011;7711;46.634;14.318;2023-10-08T03:28:23;10.73;;;7.30;;
15216;SDS011;7711;46.634;14.318;2023-10-08T03:30:52;11.00;;;7.40;;
15216;SDS011;7711;46.634;14.318;2023-10-08T03:33:29;10.67;;;7.13;;
15216;SDS011;7711;46.634;14.318;2023-10-08T03:35:59;12.77;;;8.27;;
15216;SDS011;7711;46.634;14.318;2023-10-08T03:38:34;13.90;;;8.07;;
15216;SDS011;7711;46.634;14.318;2023-10-08T03:41:10;13.20;;;7.47;;
15216;SDS011;7711;46.634;14.318;2023-10-08T03:43:41;10.63;;;7.17;;
15216;SDS011;7711;46.634;14.318;2023-10-08T03:46:17;11.77;;;7.37;;
15216;SDS011;7711;46.634;14.318;2023-10-08T03:48:48;12.97;;;8.13;;
15216;SDS011;7711;46.634;14.318;2023-10-08T03:51:16;14.70;;;8.07;;
15216;SDS011;7711;46.634;14.318;2023-10-08T03:53:45;11.50;;;8.43;;
15216;SDS011;7711;46.634;14.318;2023-10-08T03:56:27;12.17;;;8.00;;
15216;SDS011;7711;46.634;14.318;2023-10-08T03:58:55;11.03;;;7.43;;
15216;SDS011;7711;46.634;14.318;2023-10-08T04:01:25;11.07;;;7.70;;
15216;SDS011;7711;46.634;14.318;2023-10-08T04:03:58;9.87;;;8.07;;
15216;SDS011;7711;46.634;14.318;2023-10-08T04:06:27;12.43;;;7.40;;
15216;SDS011;7711;46.634;14.318;2023-10-08T04:09:03;11.00;;;7.90;;
15216;SDS011;7711;46.634;14.318;2023-10-08T04:11:48;10.17;;;7.57;;
15216;SDS011;7711;46.634;14.318;2023-10-08T04:14:21;10.60;;;7.63;;
15216;SDS011;7711;46.634;14.318;2023-10-08T04:16:50;12.03;;;7.83;;
15216;SDS011;7711;46.634;14.318;2023-10-08T04:19:19;11.10;;;7.80;;
15216;SDS011;7711;46.634;14.318;2023-10-08T04:21:51;13.50;;;8.27;;
15216;SDS011;7711;46.634;14.318;2023-10-08T04:24:21;16.00;;;7.80;;
15216;SDS011;7711;46.634;14.318;2023-10-08T04:26:56;16.00;;;8.47;;
15216;SDS011;7711;46.634;14.318;2023-10-08T04:29:23;12.13;;;7.60;;
15216;SDS011;7711;46.634;14.318;2023-10-08T04:31:51;12.37;;;7.57;;
15216;SDS011;7711;46.634;14.318;2023-10-08T04:34:28;14.87;;;8.63;;
15216;SDS011;7711;46.634;14.318;2023-10-08T04:36:55;13.07;;;7.40;;
15216;SDS011;7711;46.634;14.318;2023-10-08T04:39:26;11.20;;;7.90;;
15216;SDS011;7711;46.634;14.318;2023-10-08T04:41:57;15.70;;;7.57;;
15216;SDS011;7711;46.634;14.318;2023-10-08T04:44:30;9.80;;;7.67;;
15216;SDS011;7711;46.634;14.318;2023-10-08T04:46:58;12.23;;;8.30;;
15216;SDS011;7711;46.634;14.318;2023-10-08T04:49:33;16.63;;;7.97;;
15216;SDS011;7711;46.634;14.318;2023-10-08T04:52:03;13.70;;;7.80;;
15216;SDS011;7711;46.634;14.318;2023-10-08T04:54:34;13.93;;;8.37;;
15216;SDS011;7711;46.634;14.318;2023-10-08T04:57:05;12.00;;;7.97;;
15216;SDS011;7711;46.634;14.318;2023-10-08T04:59:40;15.47;;;8.63;;
15216;SDS011;7711;46.634;14.318;2023-10-08T05:02:08;10.73;;;7.50;;
15216;SDS011;7711;46.634;14.318;2023-10-08T05:04:46;14.43;;;8.07;;
15216;SDS011;7711;46.634;14.318;2023-10-08T05:07:32;13.93;;;7.70;;
15216;SDS011;7711;46.634;14.318;2023-10-08T05:10:17;13.30;;;8.00;;
15216;SDS011;7711;46.634;14.318;2023-10-08T05:13:01;14.93;;;7.93;;
15216;SDS011;7711;46.634;14.318;2023-10-08T05:15:41;14.30;;;7.50;;
15216;SDS011;7711;46.634;14.318;2023-10-08T05:18:15;14.80;;;8.23;;
15216;SDS011;7711;46.634;14.318;2023-10-08T05:20:50;13.40;;;7.80;;
15216;SDS011;7711;46.634;14.318;2023-10-08T05:23:40;13.57;;;7.70;;
15216;SDS011;7711;46.634;14.318;2023-10-08T05:26:23;14.03;;;7.90;;
15216;SDS011;7711;46.634;14.318;2023-10-08T05:29:06;15.93;;;7.70;;
15216;SDS011;7711;46.634;14.318;2023-10-08T05:31:48;17.77;;;8.37;;
15216;SDS011;7711;46.634;14.318;2023-10-08T05:34:35;16.00;;;8.13;;
15216;SDS011;7711;46.634;14.318;2023-10-08T05:37:10;13.93;;;8.33;;
15216;SDS011;7711;46.634;14.318;2023-10-08T05:39:53;13.47;;;8.03;;
15216;SDS011;7711;46.634;14.318;2023-10-08T05:42:21;17.73;;;8.73;;
15216;SDS011;7711;46.634;14.318;2023-10-08T05:44:57;17.17;;;8.47;;
15216;SDS011;7711;46.634;14.318;2023-10-08T05:47:40;13.37;;;8.23;;
15216;SDS011;7711;46.634;14.318;2023-10-08T05:50:26;14.17;;;7.77;;
15216;SDS011;7711;46.634;14.318;2023-10-08T05:53:09;12.87;;;7.67;;
15216;SDS011;7711;46.634;14.318;2023-10-08T05:55:50;14.10;;;7.53;;
15216;SDS011;7711;46.634;14.318;2023-10-08T05:58:26;14.77;;;7.93;;
15216;SDS011;7711;46.634;14.318;2023-10-08T06:01:01;14.73;;;7.90;;
15216;SDS011;7711;46.634;14.318;2023-10-08T06:03:34;16.53;;;8.33;;
15216;SDS011;7711;46.634;14.318;2023-10-08T06:06:25;12.90;;;7.67;;
15216;SDS011;7711;46.634;14.318;2023-10-08T06:09:04;13.87;;;7.60;;
15216;SDS011;7711;46.634;14.318;2023-10-08T06:11:47;15.00;;;8.27;;
15216;SDS011;7711;46.634;14.318;2023-10-08T06:14:31;11.93;;;7.20;;
15216;SDS011;7711;46.634;14.318;2023-10-08T06:17:17;12.20;;;8.20;;
15216;SDS011;7711;46.634;14.318;2023-10-08T06:19:59;14.70;;;7.67;;
15216;SDS011;7711;46.634;14.318;2023-10-08T06:22:34;16.47;;;7.73;;
15216;SDS011;7711;46.634;14.318;2023-10-08T06:25:04;13.13;;;7.43;;
15216;SDS011;7711;46.634;14.318;2023-10-08T06:27:48;15.20;;;7.65;;
15216;SDS011;7711;46.634;14.318;2023-10-08T06:30:19;13.38;;;7.85;;
15216;SDS011;7711;46.634;14.318;2023-10-08T06:32:46;11.73;;;7.22;;
15216;SDS011;7711;46.634;14.318;2023-10-08T06:35:15;11.20;;;7.20;;
15216;SDS011;7711;46.634;14.318;2023-10-08T06:37:44;17.45;;;8.27;;
15216;SDS011;7711;46.634;14.318;2023-10-08T06:40:15;13.68;;;8.38;;
15216;SDS011;7711;46.634;14.318;2023-10-08T06:42:56;19.02;;;8.38;;
15216;SDS011;7711;46.634;14.318;2023-10-08T06:45:28;15.05;;;8.20;;
15216;SDS011;7711;46.634;14.318;2023-10-08T06:47:58;14.10;;;8.27;;
15216;SDS011;7711;46.634;14.318;2023-10-08T06:50:31;12.48;;;7.47;;
15216;SDS011;7711;46.634;14.318;2023-10-08T06:53:00;18.63;;;8.98;;
15216;SDS011;7711;46.634;14.318;2023-10-08T06:55:32;13.45;;;7.38;;
15216;SDS011;7711;46.634;14.318;2023-10-08T06:58:01;12.93;;;7.07;;
15216;SDS011;7711;46.634;14.318;2023-10-08T07:00:32;15.77;;;8.23;;
15216;SDS011;7711;46.634;14.318;2023-10-08T07:03:04;16.90;;;7.55;;
15216;SDS011;7711;46.634;14.318;2023-10-08T07:05:33;13.13;;;7.60;;
15216;SDS011;7711;46.634;14.318;2023-10-08T07:08:07;13.52;;;7.28;;
15216;SDS011;7711;46.634;14.318;2023-10-08T07:10:36;14.85;;;7.30;;
15216;SDS011;7711;46.634;14.318;2023-10-08T07:13:03;14.10;;;7.82;;
15216;SDS011;7711;46.634;14.318;2023-10-08T07:15:33;15.68;;;7.15;;
15216;SDS011;7711;46.634;14.318;2023-10-08T07:18:03;14.77;;;7.88;;
15216;SDS011;7711;46.634;14.318;2023-10-08T07:20:35;11.77;;;6.93;;
15216;SDS011;7711;46.634;14.318;2023-10-08T07:23:05;12.18;;;7.80;;
15216;SDS011;7711;46.634;14.318;2023-10-08T07:25:46;12.85;;;7.50;;
15216;SDS011;7711;46.634;14.318;2023-10-08T07:28:19;13.18;;;7.85;;
15216;SDS011;7711;46.634;14.318;2023-10-08T07:30:46;12.82;;;6.88;;
15216;SDS011;7711;46.634;14.318;2023-10-08T07:33:15;15.80;;;7.13;;
15216;SDS011;7711;46.634;14.318;2023-10-08T07:35:46;11.95;;;7.32;;
15216;SDS011;7711;46.634;14.318;2023-10-08T07:38:20;12.93;;;6.93;;
15216;SDS011;7711;46.634;14.318;2023-10-08T07:40:49;12.40;;;7.22;;
15216;SDS011;7711;46.634;14.318;2023-10-08T07:43:18;13.38;;;6.55;;
15216;SDS011;7711;46.634;14.318;2023-10-08T07:45:45;12.15;;;6.95;;
15216;SDS011;7711;46.634;14.318;2023-10-08T07:48:13;15.23;;;7.15;;
15216;SDS011;7711;46.634;14.318;2023-10-08T07:50:43;14.65;;;7.53;;
15216;SDS011;7711;46.634;14.318;2023-10-08T07:53:12;10.93;;;6.28;;
15216;SDS011;7711;46.634;14.318;2023-10-08T07:55:44;15.07;;;6.82;;
15216;SDS011;7711;46.634;14.318;2023-10-08T07:58:15;11.68;;;6.80;;
15216;SDS011;7711;46.634;14.318;2023-10-08T08:00:42;11.48;;;6.75;;
15216;SDS011;7711;46.634;14.318;2023-10-08T08:03:17;15.45;;;7.10;;
15216;SDS011;7711;46.634;14.318;2023-10-08T08:05:46;11.30;;;6.78;;
15216;SDS011;7711;46.634;14.318;2023-10-08T08:08:14;11.40;;;6.78;;
15216;SDS011;7711;46.634;14.318;2023-10-08T08:10:43;11.88;;;7.20;;
15216;SDS011;7711;46.634;14.318;2023-10-08T08:13:11;11.48;;;6.35;;
15216;SDS011;7711;46.634;14.318;2023-10-08T08:15:47;10.70;;;6.88;;
15216;SDS011;7711;46.634;14.318;2023-10-08T08:18:16;10.93;;;6.72;;
15216;SDS011;7711;46.634;14.318;2023-10-08T08:20:49;16.17;;;6.80;;
15216;SDS011;7711;46.634;14.318;2023-10-08T08:23:16;11.65;;;7.30;;
15216;SDS011;7711;46.634;14.318;2023-10-08T08:25:43;11.80;;;6.55;;
15216;SDS011;7711;46.634;14.318;2023-10-08T08:28:31;12.18;;;6.53;;
15216;SDS011;7711;46.634;14.318;2023-10-08T08:31:03;13.68;;;6.95;;
15216;SDS011;7711;46.634;14.318;2023-10-08T08:33:38;12.10;;;6.70;;
15216;SDS011;7711;46.634;14.318;2023-10-08T08:36:19;14.68;;;6.78;;
15216;SDS011;7711;46.634;14.318;2023-10-08T08:38:47;12.23;;;7.30;;
15216;SDS011;7711;46.634;14.318;2023-10-08T08:41:15;11.82;;;6.38;;
15216;SDS011;7711;46.634;14.318;2023-10-08T08:43:44;10.60;;;6.90;;
15216;SDS011;7711;46.634;14.318;2023-10-08T08:46:16;10.52;;;6.63;;
15216;SDS011;7711;46.634;14.318;2023-10-08T08:48:43;12.75;;;6.35;;
15216;SDS011;7711;46.634;14.318;2023-10-08T08:51:11;12.20;;;6.75;;
15216;SDS011;7711;46.634;14.318;2023-10-08T08:53:38;10.40;;;6.32;;
15216;SDS011;7711;46.634;14.318;2023-10-08T08:56:07;9.02;;;6.25;;
15216;SDS011;7711;46.634;14.318;2023-10-08T08:58:36;10.10;;;6.18;;
15216;SDS011;7711;46.634;14.318;2023-10-08T09:01:06;11.82;;;6.75;;
15216;SDS011;7711;46.634;14.318;2023-10-08T09:03:39;10.82;;;6.18;;
15216;SDS011;7711;46.634;14.318;2023-10-08T09:06:06;10.43;;;6.22;;
15216;SDS011;7711;46.634;14.318;2023-10-08T09:08:34;9.55;;;5.95;;
15216;SDS011;7711;46.634;14.318;2023-10-08T09:11:01;13.85;;;6.45;;
15216;SDS011;7711;46.634;14.318;2023-10-08T09:13:30;11.68;;;6.43;;
15216;SDS011;7711;46.634;14.318;2023-10-08T09:16:01;11.73;;;6.40;;
15216;SDS011;7711;46.634;14.318;2023-10-08T09:18:33;8.32;;;6.20;;
15216;SDS011;7711;46.634;14.318;2023-10-08T09:21:13;12.93;;;6.32;;
15216;SDS011;7711;46.634;14.318;2023-10-08T09:23:44;9.32;;;6.13;;
15216;SDS011;7711;46.634;14.318;2023-10-08T09:26:16;12.25;;;6.10;;
15216;SDS011;7711;46.634;14.318;2023-10-08T09:28:45;9.80;;;6.13;;
15216;SDS011;7711;46.634;14.318;2023-10-08T09:31:13;12.45;;;6.95;;
15216;SDS011;7711;46.634;14.318;2023-10-08T09:33:42;13.50;;;6.00;;
15216;SDS011;7711;46.634;14.318;2023-10-08T09:36:10;14.95;;;6.82;;
15216;SDS011;7711;46.634;14.318;2023-10-08T09:38:45;12.05;;;6.47;;
15216;SDS011;7711;46.634;14.318;2023-10-08T09:41:14;11.15;;;6.50;;
15216;SDS011;7711;46.634;14.318;2023-10-08T09:43:41;12.48;;;6.43;;
15216;SDS011;7711;46.634;14.318;2023-10-08T09:46:13;11.18;;;6.63;;
15216;SDS011;7711;46.634;14.318;2023-10-08T09:48:46;11.35;;;6.40;;
15216;SDS011;7711;46.634;14.318;2023-10-08T09:51:16;11.57;;;6.45;;
15216;SDS011;7711;46.634;14.318;2023-10-08T09:53:51;13.52;;;5.68;;
15216;SDS011;7711;46.634;14.318;2023-10-08T09:56:24;10.25;;;6.25;;
15216;SDS011;7711;46.634;14.318;2023-10-08T09:58:56;13.27;;;6.53;;
15216;SDS011;7711;46.634;14.318;2023-10-08T10:01:24;10.90;;;6.38;;
15216;SDS011;7711;46.634;14.318;2023-10-08T10:03:52;9.70;;;6.28;;
15216;SDS011;7711;46.634;14.318;2023-10-08T10:06:19;10.80;;;6.20;;
15216;SDS011;7711;46.634;14.318;2023-10-08T10:08:48;11.15;;;5.90;;
15216;SDS011;7711;46.634;14.318;2023-10-08T10:11:15;11.30;;;5.88;;
15216;SDS011;7711;46.634;14.318;2023-10-08T10:13:43;11.93;;;6.30;;
15216;SDS011;7711;46.634;14.318;2023-10-08T10:16:13;10.93;;;6.32;;
15216;SDS011;7711;46.634;14.318;2023-10-08T10:18:48;10.48;;;6.35;;
15216;SDS011;7711;46.634;14.318;2023-10-08T10:21:25;13.73;;;6.05;;
15216;SDS011;7711;46.634;14.318;2023-10-08T10:23:57;12.95;;;5.93;;
15216;SDS011;7711;46.634;14.318;2023-10-08T10:26:25;12.23;;;6.55;;
15216;SDS011;7711;46.634;14.318;2023-10-08T10:31:52;10.93;;;6.53;;
15216;SDS011;7711;46.634;14.318;2023-10-08T10:34:22;14.23;;;6.68;;
15216;SDS011;7711;46.634;14.318;2023-10-08T10:36:52;11.73;;;6.47;;
15216;SDS011;7711;46.634;14.318;2023-10-08T10:39:25;10.73;;;5.85;;
15216;SDS011;7711;46.634;14.318;2023-10-08T10:41:55;10.00;;;5.85;;
15216;SDS011;7711;46.634;14.318;2023-10-08T10:44:26;11.38;;;6.40;;
15216;SDS011;7711;46.634;14.318;2023-10-08T10:46:55;12.43;;;6.10;;
15216;SDS011;7711;46.634;14.318;2023-10-08T10:49:36;8.43;;;5.90;;
15216;SDS011;7711;46.634;14.318;2023-10-08T10:52:13;10.93;;;5.80;;
15216;SDS011;7711;46.634;14.318;2023-10-08T10:54:44;8.93;;;5.68;;
15216;SDS011;7711;46.634;14.318;2023-10-08T10:57:24;12.63;;;6.18;;
15216;SDS011;7711;46.634;14.318;2023-10-08T10:59:52;10.73;;;5.88;;
15216;SDS011;7711;46.634;14.318;2023-10-08T11:02:19;10.82;;;5.78;;
15216;SDS011;7711;46.634;14.318;2023-10-08T11:04:46;9.50;;;5.80;;
15216;SDS011;7711;46.634;14.318;2023-10-08T11:07:14;9.40;;;5.40;;
15216;SDS011;7711;46.634;14.318;2023-10-08T11:09:44;9.23;;;5.28;;
15216;SDS011;7711;46.634;14.318;2023-10-08T11:12:13;9.82;;;6.10;;
15216;SDS011;7711;46.634;14.318;2023-10-08T11:14:48;10.60;;;6.03;;
15216;SDS011;7711;46.634;14.318;2023-10-08T11:17:17;11.68;;;5.72;;
15216;SDS011;7711;46.634;14.318;2023-10-08T11:19:49;12.25;;;5.18;;
15216;SDS011;7711;46.634;14.318;2023-10-08T11:22:17;10.95;;;5.60;;
15216;SDS011;7711;46.634;14.318;2023-10-08T11:24:49;12.48;;;5.93;;
15216;SDS011;7711;46.634;14.318;2023-10-08T11:27:19;13.02;;;5.82;;
15216;SDS011;7711;46.634;14.318;2023-10-08T11:29:55;11.23;;;6.00;;
15216;SDS011;7711;46.634;14.318;2023-10-08T11:32:23;12.50;;;5.85;;
15216;SDS011;7711;46.634;14.318;2023-10-08T11:34:54;13.00;;;6.22;;
15216;SDS011;7711;46.634;14.318;2023-10-08T11:37:27;10.65;;;6.10;;
15216;SDS011;7711;46.634;14.318;2023-10-08T11:39:57;11.30;;;6.05;;
15216;SDS011;7711;46.634;14.318;2023-10-08T11:42:24;12.82;;;6.05;;
15216;SDS011;7711;46.634;14.318;2023-10-08T11:45:10;14.73;;;5.93;;
15216;SDS011;7711;46.634;14.318;2023-10-08T11:47:49;8.90;;;5.78;;
15216;SDS011;7711;46.634;14.318;2023-10-08T11:50:22;9.95;;;5.65;;
15216;SDS011;7711;46.634;14.318;2023-10-08T11:52:56;7.93;;;5.35;;
15216;SDS011;7711;46.634;14.318;2023-10-08T11:55:32;13.23;;;6.03;;
15216;SDS011;7711;46.634;14.318;2023-10-08T11:58:01;10.23;;;6.05;;
15216;SDS011;7711;46.634;14.318;2023-10-08T12:00:35;13.10;;;6.25;;
15216;SDS011;7711;46.634;14.318;2023-10-08T12:03:09;9.70;;;5.75;;
15216;SDS011;7711;46.634;14.318;2023-10-08T12:05:36;11.57;;;6.10;;
15216;SDS011;7711;46.634;14.318;2023-10-08T12:08:12;9.30;;;6.00;;
15216;SDS011;7711;46.634;14.318;2023-10-08T12:10:42;10.45;;;5.90;;
15216;SDS011;7711;46.634;14.318;2023-10-08T12:13:11;8.45;;;5.93;;
15216;SDS011;7711;46.634;14.318;2023-10-08T12:15:38;7.97;;;5.97;;
15216;SDS011;7711;46.634;14.318;2023-10-08T12:18:06;14.52;;;6.22;;
15216;SDS011;7711;46.634;14.318;2023-10-08T12:20:40;12.45;;;5.88;;
15216;SDS011;7711;46.634;14.318;2023-10-08T12:23:10;11.18;;;5.82;;
15216;SDS011;7711;46.634;14.318;2023-10-08T12:25:46;9.98;;;6.13;;
15216;SDS011;7711;46.634;14.318;2023-10-08T12:28:16;13.45;;;6.07;;
15216;SDS011;7711;46.634;14.318;2023-10-08T12:30:44;12.88;;;6.25;;
15216;SDS011;7711;46.634;14.318;2023-10-08T12:33:11;12.68;;;6.07;;
15216;SDS011;7711;46.634;14.318;2023-10-08T12:35:42;10.07;;;5.43;;
15216;SDS011;7711;46.634;14.318;2023-10-08T12:38:09;12.75;;;6.13;;
15216;SDS011;7711;46.634;14.318;2023-10-08T12:40:38;8.52;;;6.00;;
15216;SDS011;7711;46.634;14.318;2023-10-08T12:43:14;11.48;;;6.00;;
15216;SDS011;7711;46.634;14.318;2023-10-08T12:45:44;13.00;;;6.45;;
15216;SDS011;7711;46.634;14.318;2023-10-08T12:48:17;12.95;;;5.75;;
15216;SDS011;7711;46.634;14.318;2023-10-08T12:50:45;11.90;;;6.40;;
15216;SDS011;7711;46.634;14.318;2023-10-08T12:53:18;13.52;;;5.90;;
15216;SDS011;7711;46.634;14.318;2023-10-08T12:55:49;9.55;;;6.20;;
15216;SDS011;7711;46.634;14.318;2023-10-08T12:58:21;12.65;;;6.28;;
15216;SDS011;7711;46.634;14.318;2023-10-08T13:00:52;10.20;;;6.38;;
15216;SDS011;7711;46.634;14.318;2023-10-08T13:03:28;11.65;;;6.45;;
15216;SDS011;7711;46.634;14.318;2023-10-08T13:05:58;9.93;;;6.32;;
15216;SDS011;7711;46.634;14.318;2023-10-08T13:08:30;12.63;;;6.18;;
15216;SDS011;7711;46.634;14.318;2023-10-08T13:11:00;9.40;;;6.38;;
15216;SDS011;7711;46.634;14.318;2023-10-08T13:13:31;10.63;;;6.20;;
15216;SDS011;7711;46.634;14.318;2023-10-08T13:16:02;15.57;;;6.68;;
15216;SDS011;7711;46.634;14.318;2023-10-08T13:18:33;12.23;;;6.32;;
15216;SDS011;7711;46.634;14.318;2023-10-08T13:21:03;13.80;;;6.32;;
15216;SDS011;7711;46.634;14.318;2023-10-08T13:23:32;8.63;;;5.93;;
15216;SDS011;7711;46.634;14.318;2023-10-08T13:26:01;9.60;;;5.90;;
15216;SDS011;7711;46.634;14.318;2023-10-08T13:28:34;12.52;;;6.85;;
15216;SDS011;7711;46.634;14.318;2023-10-08T13:31:04;9.60;;;5.68;;
15216;SDS011;7711;46.634;14.318;2023-10-08T13:33:36;14.55;;;6.30;;
15216;SDS011;7711;46.634;14.318;2023-10-08T13:36:08;13.80;;;6.57;;
15216;SDS011;7711;46.634;14.318;2023-10-08T13:38:39;11.85;;;5.97;;
15216;SDS011;7711;46.634;14.318;2023-10-08T13:41:08;11.55;;;6.18;;
15216;SDS011;7711;46.634;14.318;2023-10-08T13:43:44;8.73;;;6.22;;
15216;SDS011;7711;46.634;14.318;2023-10-08T13:46:13;15.55;;;6.30;;
15216;SDS011;7711;46.634;14.318;2023-10-08T13:48:43;12.82;;;6.22;;
15216;SDS011;7711;46.634;14.318;2023-10-08T13:51:14;12.50;;;5.93;;
15216;SDS011;7711;46.634;14.318;2023-10-08T13:53:48;12.65;;;5.80;;
15216;SDS011;7711;46.634;14.318;2023-10-08T13:56:18;12.43;;;5.88;;
15216;SDS011;7711;46.634;14.318;2023-10-08T13:58:53;11.68;;;5.75;;
15216;SDS011;7711;46.634;14.318;2023-10-08T14:01:29;10.23;;;5.95;;
15216;SDS011;7711;46.634;14.318;2023-10-08T14:03:59;8.90;;;5.55;;
15216;SDS011;7711;46.634;14.318;2023-10-08T14:06:31;11.85;;;6.63;;
15216;SDS011;7711;46.634;14.318;2023-10-08T14:09:00;8.27;;;5.97;;
15216;SDS011;7711;46.634;14.318;2023-10-08T14:11:33;13.32;;;5.88;;
15216;SDS011;7711;46.634;14.318;2023-10-08T14:14:03;12.20;;;6.40;;
15216;SDS011;7711;46.634;14.318;2023-10-08T14:16:36;12.07;;;6.30;;
15216;SDS011;7711;46.634;14.318;2023-10-08T14:19:07;12.40;;;6.13;;
15216;SDS011;7711;46.634;14.318;2023-10-08T14:21:38;9.23;;;5.72;;
15216;SDS011;7711;46.634;14.318;2023-10-08T14:24:15;10.57;;;6.50;;
15216;SDS011;7711;46.634;14.318;2023-10-08T14:26:44;8.90;;;5.72;;
15216;SDS011;7711;46.634;14.318;2023-10-08T14:29:20;12.57;;;5.38;;
15216;SDS011;7711;46.634;14.318;2023-10-08T14:31:52;14.07;;;6.28;;
15216;SDS011;7711;46.634;14.318;2023-10-08T14:34:23;12.93;;;5.57;;
15216;SDS011;7711;46.634;14.318;2023-10-08T14:37:16;10.57;;;6.10;;
15216;SDS011;7711;46.634;14.318;2023-10-08T14:40:02;14.38;;;6.15;;
15216;SDS011;7711;46.634;14.318;2023-10-08T14:42:47;12.60;;;6.18;;
15216;SDS011;7711;46.634;14.318;2023-10-08T14:45:34;11.77;;;5.88;;
15216;SDS011;7711;46.634;14.318;2023-10-08T14:48:05;11.05;;;5.40;;
15216;SDS011;7711;46.634;14.318;2023-10-08T14:50:36;9.93;;;6.05;;
15216;SDS011;7711;46.634;14.318;2023-10-08T14:53:06;12.85;;;6.35;;
15216;SDS011;7711;46.634;14.318;2023-10-08T14:55:35;11.93;;;6.10;;
15216;SDS011;7711;46.634;14.318;2023-10-08T14:58:04;10.18;;;5.63;;
15216;SDS011;7711;46.634;14.318;2023-10-08T15:00:37;10.75;;;5.80;;
15216;SDS011;7711;46.634;14.318;2023-10-08T15:03:07;9.55;;;6.00;;
15216;SDS011;7711;46.634;14.318;2023-10-08T15:05:37;10.10;;;6.18;;
15216;SDS011;7711;46.634;14.318;2023-10-08T15:08:06;11.65;;;6.10;;